Time;durP1;ratioP1;P1;durP2;ratioP2;P2;SDS_P1;SDS_P2;PMS_P1;PMS_P2;Temp;Humidity;BMP_temperature;BMP_pressure;BME280_temperature;BME280_humidity;BME280_pressure;Samples;Min_cycle;Max_cycle;Signal;HPM_P1;HPM_P2
2022/03/30 00:00:28;;;;;;;53.13;31.20;;;;;;;4.30;70.85;97920.32;2118412;84;21005;-84
2022/03/30 00:03:30;;;;;;;51.30;30.83;;;;;;;4.32;70.87;97920.81;2097238;84;21069;-84
2022/03/30 00:06:31;;;;;;;49.60;31.60;;;;;;;4.34;70.99;97919.16;2119446;84;20958;-85
2022/03/30 00:09:32;;;;;;;47.33;31.10;;;;;;;4.40;71.29;97920.58;2111942;83;21046;-83
2022/03/30 00:12:33;;;;;;;58.93;33.70;;;;;;;4.44;71.20;97921.10;2119773;84;21006;-83
2022/03/30 00:15:34;;;;;;;56.43;32.57;;;;;;;4.45;71.23;97926.72;2120386;84;21038;-82
2022/03/30 00:18:34;;;;;;;55.47;30.97;;;;;;;4.46;71.28;97925.88;2110791;83;21010;-83
2022/03/30 00:21:35;;;;;;;54.23;31.70;;;;;;;4.47;71.24;97930.63;2119996;84;21022;-83
2022/03/30 00:24:35;;;;;;;53.70;32.17;;;;;;;4.47;71.29;97923.75;2120145;83;21054;-82
2022/03/30 00:27:36;;;;;;;52.70;32.97;;;;;;;4.49;71.37;97925.08;2118142;84;21338;-82
2022/03/30 00:30:36;;;;;;;53.63;32.23;;;;;;;4.51;71.30;97916.93;2120861;83;21373;-82
2022/03/30 00:33:37;;;;;;;57.03;34.50;;;;;;;4.54;71.27;97918.28;2122245;84;20907;-82
2022/03/30 00:36:37;;;;;;;58.10;32.80;;;;;;;4.56;71.29;97913.15;2111415;84;21002;-82
2022/03/30 00:39:38;;;;;;;55.97;34.57;;;;;;;4.57;71.31;97904.55;2113075;84;21059;-82
2022/03/30 00:42:38;;;;;;;59.43;36.17;;;;;;;4.57;71.32;97901.97;2125365;84;21012;-84
2022/03/30 00:45:39;;;;;;;62.90;35.97;;;;;;;4.55;71.31;97903.66;2120746;84;21058;-83
2022/03/30 00:48:40;;;;;;;60.43;33.77;;;;;;;4.51;71.24;97901.84;2117064;84;21025;-83
2022/03/30 00:51:40;;;;;;;58.20;35.07;;;;;;;4.50;71.25;97899.69;2117486;84;21033;-83
2022/03/30 00:54:41;;;;;;;62.30;35.53;;;;;;;4.48;71.24;97898.78;2117912;84;20955;-83
2022/03/30 00:57:41;;;;;;;58.67;34.33;;;;;;;4.45;71.30;97891.84;2112773;83;20955;-83
2022/03/30 01:00:42;;;;;;;59.57;35.17;;;;;;;4.43;71.30;97885.77;2113417;84;20943;-84
2022/03/30 01:03:42;;;;;;;59.67;35.23;;;;;;;4.42;71.37;97884.44;2119294;84;21327;-83
2022/03/30 01:06:43;;;;;;;55.13;34.70;;;;;;;4.41;71.39;97887.45;2111593;84;21279;-83
2022/03/30 01:09:43;;;;;;;61.67;33.27;;;;;;;4.38;71.25;97880.05;2122472;84;21410;-83
2022/03/30 01:12:44;;;;;;;59.57;34.63;;;;;;;4.34;71.41;97875.66;2118131;84;20944;-83
2022/03/30 01:15:44;;;;;;;59.17;36.40;;;;;;;4.32;71.28;97873.44;2119005;83;20978;-83
2022/03/30 01:18:45;;;;;;;59.43;34.33;;;;;;;4.31;71.23;97874.27;2125395;83;20977;-83
2022/03/30 01:21:45;;;;;;;62.07;34.87;;;;;;;4.27;71.13;97871.17;2125802;84;20983;-83
2022/03/30 01:24:46;;;;;;;54.67;33.90;;;;;;;4.23;71.25;97865.07;2125890;84;20998;-84
2022/03/30 01:27:47;;;;;;;55.33;34.77;;;;;;;4.23;71.15;97871.95;2125530;84;20982;-82
2022/03/30 01:34:06;;;;;;;51.90;33.70;;;;;;;4.20;71.08;97868.88;2126922;84;21066;-83
2022/03/30 01:37:07;;;;;;;54.93;34.33;;;;;;;4.20;71.06;97865.42;2121321;84;20991;-83
2022/03/30 01:40:08;;;;;;;62.83;33.23;;;;;;;4.19;71.00;97861.10;2114887;84;20978;-84
2022/03/30 01:43:09;;;;;;;50.83;31.63;;;;;;;4.14;70.82;97861.88;2119858;84;20983;-84
2022/03/30 01:46:09;;;;;;;112.83;35.93;;;;;;;4.08;70.91;97854.42;2118367;84;21087;-84
2022/03/30 01:49:10;;;;;;;57.67;34.63;;;;;;;4.02;70.97;97857.73;2113022;83;20955;-85
2022/03/30 01:52:10;;;;;;;62.07;32.53;;;;;;;4.01;70.97;97852.13;2111782;83;20983;-86
2022/03/30 01:55:11;;;;;;;53.27;31.67;;;;;;;3.96;71.03;97850.28;2111942;83;20975;-84
2022/03/30 01:58:11;;;;;;;59.77;31.20;;;;;;;3.87;71.23;97844.91;2126276;84;21275;-86
2022/03/30 02:01:13;;;;;;;56.77;32.23;;;;;;;3.78;71.40;97846.45;2110547;83;20959;-84
2022/03/30 02:04:14;;;;;;;53.20;31.73;;;;;;;3.76;71.51;97842.97;2117329;84;20955;-85
2022/03/30 02:07:15;;;;;;;85.00;34.03;;;;;;;3.69;71.53;97850.54;2112655;84;21366;-85
2022/03/30 02:10:15;;;;;;;54.30;32.33;;;;;;;3.60;71.65;97845.16;2106374;84;21413;-85
2022/03/30 02:13:16;;;;;;;81.23;34.07;;;;;;;3.55;71.90;97839.90;2107098;84;20974;-81
2022/03/30 02:16:16;;;;;;;55.20;32.23;;;;;;;3.49;71.86;97843.63;2092009;84;20951;-85
2022/03/30 02:19:16;;;;;;;62.87;33.60;;;;;;;3.42;71.99;97836.13;2091588;84;21063;-85
2022/03/30 02:22:17;;;;;;;62.37;34.37;;;;;;;3.34;72.15;97829.05;2091907;84;20987;-84
2022/03/30 02:25:18;;;;;;;55.47;31.87;;;;;;;3.33;72.33;97829.88;2111941;84;20954;-85
2022/03/30 02:28:18;;;;;;;73.10;32.47;;;;;;;3.31;72.45;97830.26;2117207;84;20986;-83
2022/03/30 02:31:22;;;;;;;175.80;41.37;;;;;;;3.30;72.68;97828.52;2091746;84;20991;-84
2022/03/30 02:34:22;;;;;;;59.83;31.97;;;;;;;3.32;72.79;97824.27;2113166;84;21074;-84
2022/03/30 02:37:23;;;;;;;53.97;30.83;;;;;;;3.29;72.57;97826.35;2108360;84;20955;-85
2022/03/30 02:40:23;;;;;;;60.40;33.37;;;;;;;3.24;72.45;97821.92;2093541;84;21208;-84
2022/03/30 02:43:24;;;;;;;58.87;30.40;;;;;;;3.20;72.39;97820.55;2119577;84;20959;-85
2022/03/30 02:46:24;;;;;;;53.07;32.07;;;;;;;3.15;72.61;97810.55;2119544;84;20962;-85
2022/03/30 02:49:25;;;;;;;50.90;30.80;;;;;;;3.13;72.67;97813.51;2117985;84;20986;-85
2022/03/30 02:52:26;;;;;;;54.67;32.37;;;;;;;3.12;72.61;97814.76;2108132;84;21442;-85
2022/03/30 02:55:26;;;;;;;51.80;31.00;;;;;;;3.13;72.82;97818.66;2105670;84;21042;-84
2022/03/30 02:58:27;;;;;;;52.57;31.03;;;;;;;3.15;72.89;97820.86;2090016;84;20986;-85
2022/03/30 03:01:28;;;;;;;52.70;32.03;;;;;;;3.16;72.97;97812.29;2091188;84;20991;-85
2022/03/30 03:04:31;;;;;;;55.10;32.30;;;;;;;3.20;73.10;97819.69;2093319;84;21338;-84
2022/03/30 03:07:31;;;;;;;56.63;32.37;;;;;;;3.24;73.18;97818.05;2108134;84;21342;-84
2022/03/30 03:10:32;;;;;;;50.13;30.40;;;;;;;3.27;73.33;97815.55;2115005;84;21067;-84
2022/03/30 03:13:32;;;;;;;49.30;30.13;;;;;;;3.31;73.34;97818.23;2118964;84;20919;-84
2022/03/30 03:16:33;;;;;;;47.90;29.97;;;;;;;3.36;73.33;97813.19;2118882;84;20943;-86
2022/03/30 03:19:34;;;;;;;58.20;31.17;;;;;;;3.36;73.30;97812.77;2119370;83;21031;-85
2022/03/30 03:22:34;;;;;;;46.00;27.97;;;;;;;3.36;73.28;97815.77;2125844;84;20958;-85
2022/03/30 03:25:36;;;;;;;60.47;30.07;;;;;;;3.36;73.33;97809.31;2120588;84;20955;-85
2022/03/30 03:28:37;;;;;;;45.50;29.07;;;;;;;3.38;73.56;97812.38;2113704;84;21413;-84
2022/03/30 03:31:38;;;;;;;50.80;28.63;;;;;;;3.41;73.51;97809.00;2119285;84;20994;-83
2022/03/30 03:34:38;;;;;;;50.50;28.97;;;;;;;3.49;73.98;97806.22;2111534;84;20990;-85
2022/03/30 03:37:39;;;;;;;59.20;28.53;;;;;;;3.56;73.82;97800.36;2118649;84;20959;-85
2022/03/30 03:40:40;;;;;;;55.57;30.60;;;;;;;3.53;73.59;97796.84;2117607;84;21050;-83
2022/03/30 03:43:40;;;;;;;53.03;30.13;;;;;;;3.64;73.90;97791.50;2117068;84;21093;-84
2022/03/30 03:46:41;;;;;;;54.10;30.13;;;;;;;3.79;73.76;97792.70;2119588;84;20991;-84
2022/03/30 03:49:42;;;;;;;49.10;30.27;;;;;;;3.94;73.81;97790.86;2118825;84;21002;-84
2022/03/30 03:52:42;;;;;;;52.50;33.10;;;;;;;4.18;73.43;97793.07;2111758;84;20975;-83
2022/03/30 03:55:43;;;;;;;62.63;34.07;;;;;;;4.29;72.81;97787.70;2118240;84;21932;-84
2022/03/30 03:58:43;;;;;;;64.93;35.40;;;;;;;4.37;72.49;97787.88;2120645;84;20971;-84
2022/03/30 04:01:44;;;;;;;56.80;33.23;;;;;;;4.43;72.25;97781.11;2119544;84;21020;-84
2022/03/30 04:04:44;;;;;;;55.77;32.73;;;;;;;4.47;72.07;97788.50;2111025;84;20959;-85
2022/03/30 04:07:45;;;;;;;56.77;32.53;;;;;;;4.52;71.95;97785.59;2127082;84;20923;-84
2022/03/30 04:10:47;;;;;;;59.47;32.53;;;;;;;4.56;71.67;97787.38;2105869;84;21069;-84
2022/03/30 04:13:47;;;;;;;54.47;32.57;;;;;;;4.60;71.68;97796.06;2105435;84;21010;-85
2022/03/30 04:16:47;;;;;;;55.17;33.20;;;;;;;4.63;71.50;97793.53;2104387;84;20994;-84
2022/03/30 04:19:48;;;;;;;58.77;32.77;;;;;;;4.63;71.44;97802.58;2108923;84;20974;-84
2022/03/30 04:22:48;;;;;;;53.50;32.23;;;;;;;4.63;71.42;97796.98;2099917;84;21014;-84
2022/03/30 04:25:49;;;;;;;58.23;32.53;;;;;;;4.61;71.36;97801.26;2089571;84;21014;-84
2022/03/30 04:28:49;;;;;;;56.13;33.10;;;;;;;4.61;71.25;97797.80;2109596;84;20986;-84
2022/03/30 04:31:50;;;;;;;63.17;35.83;;;;;;;4.63;71.29;97800.00;2117685;84;21104;-84
2022/03/30 04:34:51;;;;;;;57.57;33.57;;;;;;;4.65;71.17;97804.77;2104880;84;20979;-84
2022/03/30 04:37:52;;;;;;;55.23;32.37;;;;;;;4.65;71.08;97804.35;2109461;84;21006;-83
2022/03/30 04:40:52;;;;;;;59.57;33.53;;;;;;;4.67;71.09;97805.25;2116003;84;21162;-84
2022/03/30 04:43:53;;;;;;;61.37;34.10;;;;;;;4.69;70.99;97807.86;2109784;84;20967;-83
2022/03/30 04:46:54;;;;;;;56.63;33.57;;;;;;;4.73;70.92;97807.95;2117649;84;21126;-81
2022/03/30 04:49:54;;;;;;;53.63;33.07;;;;;;;4.80;70.95;97816.27;2098266;84;21015;-82
2022/03/30 04:52:56;;;;;;;68.53;36.90;;;;;;;4.86;70.82;97819.38;2105964;84;21009;-84
2022/03/30 04:55:57;;;;;;;59.67;35.53;;;;;;;4.92;70.70;97814.31;2109621;84;20993;-83
2022/03/30 04:58:57;;;;;;;61.70;36.20;;;;;;;4.98;70.59;97814.42;2097045;83;21426;-83
2022/03/30 05:01:58;;;;;;;62.40;35.77;;;;;;;5.06;70.48;97811.54;2089180;85;21066;-83
2022/03/30 05:04:58;;;;;;;71.20;36.17;;;;;;;5.13;70.33;97808.63;2090808;85;20939;-84
2022/03/30 05:07:59;;;;;;;68.13;37.60;;;;;;;5.20;70.16;97818.66;2090105;85;20971;-84
2022/03/30 05:10:59;;;;;;;65.80;37.87;;;;;;;5.28;70.08;97814.52;2104961;84;21054;-83
2022/03/30 05:14:00;;;;;;;69.00;36.30;;;;;;;5.32;69.98;97809.84;2121162;84;20990;-85
2022/03/30 05:17:00;;;;;;;66.20;37.27;;;;;;;5.39;69.87;97812.97;2122403;84;21002;-84
2022/03/30 05:20:01;;;;;;;64.60;38.00;;;;;;;5.46;69.71;97807.04;2108132;84;20982;-84
2022/03/30 05:23:02;;;;;;;68.03;38.20;;;;;;;5.54;69.71;97808.02;2116574;84;21021;-84
2022/03/30 05:26:04;;;;;;;67.77;39.27;;;;;;;5.62;69.57;97806.42;2110091;83;21065;-84
2022/03/30 05:29:04;;;;;;;126.27;41.37;;;;;;;5.70;69.37;97810.41;2109608;84;21035;-84
2022/03/30 05:32:05;;;;;;;67.80;38.40;;;;;;;5.81;69.31;97809.27;2116704;84;21052;-84
2022/03/30 05:35:05;;;;;;;64.70;39.00;;;;;;;5.87;69.15;97811.95;2116916;84;21006;-84
2022/03/30 05:38:06;;;;;;;63.10;37.50;;;;;;;5.95;69.09;97807.77;2110342;83;21010;-84
2022/03/30 05:41:06;;;;;;;60.80;35.93;;;;;;;6.03;68.93;97813.92;2117393;83;21045;-82
2022/03/30 05:47:11;;;;;;;69.42;40.60;;;;;;;6.14;68.59;97815.39;2072330;84;21042;-83
2022/03/30 05:50:12;;;;;;;67.80;41.07;;;;;;;6.14;68.57;97809.78;2110983;83;21022;-84
2022/03/30 05:53:13;;;;;;;70.73;41.70;;;;;;;6.23;68.51;97821.56;2109540;84;20994;-83
2022/03/30 05:56:14;;;;;;;71.43;40.00;;;;;;;6.34;68.41;97807.44;2113279;83;20982;-84
2022/03/30 05:59:15;;;;;;;71.30;41.10;;;;;;;6.49;68.17;97818.41;2118916;83;20986;-83
2022/03/30 06:02:15;;;;;;;70.53;39.00;;;;;;;6.60;68.05;97818.11;2118109;84;20982;-84
2022/03/30 06:05:16;;;;;;;67.43;41.03;;;;;;;6.76;67.79;97814.82;2116869;84;21185;-84
2022/03/30 06:08:17;;;;;;;79.53;41.17;;;;;;;6.84;67.39;97816.20;2109820;84;21022;-84
2022/03/30 06:11:17;;;;;;;72.43;40.20;;;;;;;6.93;67.34;97804.19;2123269;84;21124;-83
2022/03/30 06:14:18;;;;;;;69.20;40.33;;;;;;;7.07;67.04;97804.77;2123987;84;21046;-84
2022/03/30 06:17:19;;;;;;;72.30;41.33;;;;;;;7.18;66.71;97803.14;2124176;84;21102;-82
2022/03/30 06:20:20;;;;;;;69.20;42.77;;;;;;;7.30;66.44;97801.95;2124242;84;21445;-83
2022/03/30 06:23:20;;;;;;;67.70;42.13;;;;;;;7.42;66.09;97804.63;2123382;84;20954;-83
2022/03/30 06:26:21;;;;;;;68.80;41.80;;;;;;;7.52;65.82;97799.95;2110265;84;20978;-85
2022/03/30 06:29:21;;;;;;;67.73;43.07;;;;;;;7.72;65.43;97801.81;2116067;84;21073;-84
2022/03/30 06:32:22;;;;;;;75.77;44.57;;;;;;;7.90;65.07;97801.53;2117701;84;20998;-80
2022/03/30 06:35:24;;;;;;;64.33;42.77;;;;;;;8.06;64.47;97799.02;2116744;84;20951;-82
2022/03/30 06:38:25;;;;;;;72.93;45.97;;;;;;;8.25;63.49;97801.70;2123982;84;21093;-84
2022/03/30 06:41:26;;;;;;;78.50;44.47;;;;;;;8.35;63.35;97804.38;2115877;84;21053;-84
2022/03/30 06:44:26;;;;;;;78.67;48.80;;;;;;;8.49;62.83;97801.39;2123418;84;20955;-83
2022/03/30 06:47:27;;;;;;;67.03;42.70;;;;;;;8.52;62.75;97806.60;2110572;84;20990;-85
2022/03/30 06:50:27;;;;;;;74.90;47.40;;;;;;;8.53;62.28;97810.51;2116190;84;20987;-86
2022/03/30 06:53:28;;;;;;;74.37;46.97;;;;;;;8.51;61.94;97804.44;2116742;84;20998;-84
2022/03/30 06:56:28;;;;;;;66.93;41.90;;;;;;;8.54;62.07;97807.48;2109617;84;20982;-84
2022/03/30 06:59:29;;;;;;;60.07;39.53;;;;;;;8.55;61.71;97810.08;2117021;84;20994;-84
2022/03/30 07:02:29;;;;;;;70.13;40.73;;;;;;;8.58;61.79;97810.09;2123466;84;21405;-85
2022/03/30 07:05:32;;;;;;;79.20;49.27;;;;;;;8.70;61.13;97818.83;2117248;84;21385;-84
2022/03/30 07:11:51;;;;;;;63.50;41.20;;;;;;;8.80;61.47;97822.77;2113785;84;21109;-84
2022/03/30 07:14:52;;;;;;;65.80;43.30;;;;;;;8.85;61.01;97825.38;2111989;84;20987;-83
2022/03/30 07:17:52;;;;;;;67.20;43.57;;;;;;;8.90;60.69;97820.62;2117480;84;20995;-84
2022/03/30 07:20:53;;;;;;;66.83;42.40;;;;;;;9.01;61.06;97817.16;2120162;83;21358;-84
2022/03/30 07:23:54;;;;;;;60.40;40.80;;;;;;;9.21;60.06;97816.32;2125226;84;20986;-85
2022/03/30 07:26:54;;;;;;;65.23;42.30;;;;;;;9.22;59.93;97817.19;2124464;84;20962;-85
2022/03/30 07:29:55;;;;;;;76.23;44.10;;;;;;;9.23;59.84;97818.92;2117328;84;20974;-84
2022/03/30 07:32:56;;;;;;;62.27;44.17;;;;;;;9.40;59.99;97821.10;2117949;84;21006;-84
2022/03/30 07:35:57;;;;;;;58.30;41.43;;;;;;;9.66;59.83;97818.95;2118753;84;21046;-82
2022/03/30 07:38:57;;;;;;;58.40;39.73;;;;;;;9.91;58.56;97815.44;2113070;84;20989;-84
2022/03/30 07:41:57;;;;;;;60.83;40.47;;;;;;;9.94;57.83;97821.08;2109797;84;21078;-84
2022/03/30 07:44:58;;;;;;;61.17;40.10;;;;;;;10.06;57.77;97820.63;2118127;84;21418;-86
2022/03/30 07:47:58;;;;;;;59.07;40.80;;;;;;;10.34;57.58;97820.57;2116587;84;21385;-84
2022/03/30 07:50:59;;;;;;;62.47;39.23;;;;;;;10.58;55.87;97820.50;2109577;84;21064;-84
2022/03/30 07:53:59;;;;;;;62.78;40.45;;;;;;;10.71;56.37;97818.27;2116339;84;21496;-84
2022/03/30 07:57:00;;;;;;;64.22;42.60;;;;;;;10.96;55.07;97822.91;2116509;84;20950;-84
2022/03/30 08:00:02;;;;;;;55.80;40.58;;;;;;;11.09;55.33;97819.78;2119944;83;20997;-82
2022/03/30 08:03:03;;;;;;;57.53;41.02;;;;;;;11.19;54.92;97822.77;2119778;84;21025;-81
2022/03/30 08:06:03;;;;;;;56.25;39.35;;;;;;;11.23;55.05;97816.64;2113107;84;21433;-83
2022/03/30 08:09:04;;;;;;;57.45;36.53;;;;;;;11.35;54.29;97819.63;2110827;84;21087;-84
2022/03/30 08:12:05;;;;;;;50.60;34.95;;;;;;;11.30;52.72;97820.97;2110684;83;21070;-83
2022/03/30 08:15:05;;;;;;;53.33;35.63;;;;;;;11.29;53.48;97814.02;2120345;84;21492;-83
2022/03/30 08:18:07;;;;;;;51.48;34.23;;;;;;;11.44;53.22;97810.41;2118064;84;20966;-83
2022/03/30 08:24:27;;;;;;;43.60;28.05;;;;;;;11.42;51.54;97813.04;2117634;84;21073;-82
2022/03/30 08:27:28;;;;;;;43.00;28.47;;;;;;;11.35;50.22;97818.33;2117254;84;20955;-82
2022/03/30 08:30:28;;;;;;;46.77;28.67;;;;;;;11.17;49.58;97808.84;2121560;84;20990;-83
2022/03/30 08:36:31;;;;;;;42.40;26.05;;;;;;;11.33;49.73;97806.58;2088274;83;21013;-82
2022/03/30 08:39:33;;;;;;;45.95;29.50;;;;;;;11.56;49.68;97801.61;2117826;84;21363;-81
2022/03/30 08:42:34;;;;;;;33.60;21.00;;;;;;;11.71;49.89;97793.19;2110413;83;21161;-82
2022/03/30 08:45:35;;;;;;;35.28;20.17;;;;;;;11.86;45.48;97793.52;2117758;84;21022;-83
2022/03/30 08:48:35;;;;;;;24.65;17.80;;;;;;;11.83;45.73;97796.16;2098401;84;21009;-82
2022/03/30 08:51:36;;;;;;;30.43;20.95;;;;;;;11.92;43.91;97799.12;2108032;84;21017;-84
2022/03/30 08:54:36;;;;;;;33.00;25.55;;;;;;;11.93;44.50;97791.70;2118418;83;21022;-84
2022/03/30 08:57:38;;;;;;;41.50;27.02;;;;;;;12.01;45.50;97785.95;2110494;84;21022;-84
2022/03/30 09:00:38;;;;;;;38.85;24.27;;;;;;;12.00;46.07;97782.47;2117594;84;21404;-84
2022/03/30 09:03:39;;;;;;;33.88;22.73;;;;;;;12.18;46.06;97780.12;2123936;83;20994;-83
2022/03/30 09:06:39;;;;;;;36.03;23.85;;;;;;;12.43;44.49;97778.08;2110185;83;20971;-81
2022/03/30 09:09:41;;;;;;;36.35;26.33;;;;;;;12.61;44.92;97772.60;2118896;83;21014;-81
2022/03/30 09:12:42;;;;;;;34.98;23.80;;;;;;;12.78;45.09;97763.65;2117735;83;21488;-81
2022/03/30 09:15:42;;;;;;;31.17;20.92;;;;;;;12.95;44.58;97761.66;2123930;84;20951;-81
2022/03/30 09:18:43;;;;;;;30.00;20.72;;;;;;;13.25;43.38;97761.25;2108784;84;20978;-81
2022/03/30 09:21:43;;;;;;;29.57;21.00;;;;;;;13.40;42.06;97757.51;2108656;84;20998;-82
2022/03/30 09:24:44;;;;;;;25.57;19.02;;;;;;;13.23;40.78;97752.98;2109298;84;21085;-82
2022/03/30 09:27:44;;;;;;;24.52;17.02;;;;;;;13.19;40.25;97754.80;2123004;84;21379;-77
2022/03/30 09:30:45;;;;;;;25.97;15.98;;;;;;;13.13;39.79;97753.55;2120916;84;21990;-81
2022/03/30 09:33:45;;;;;;;20.12;14.68;;;;;;;13.22;40.07;97748.64;2114746;84;20978;-81
2022/03/30 09:36:46;;;;;;;24.55;15.53;;;;;;;13.18;38.53;97746.52;2108636;84;20966;-82
2022/03/30 09:39:49;;;;;;;23.62;16.75;;;;;;;13.36;40.02;97748.83;2118967;84;21011;-83
2022/03/30 09:42:49;;;;;;;26.95;15.90;;;;;;;13.56;39.14;97741.07;2115793;84;21082;-81
2022/03/30 09:45:53;;;;;;;25.77;15.88;;;;;;;13.54;37.75;97737.61;2112976;84;20986;-81
2022/03/30 09:48:54;;;;;;;24.20;16.02;;;;;;;13.54;38.51;97737.61;2115861;84;21026;-79
2022/03/30 09:51:55;;;;;;;23.07;16.50;;;;;;;13.29;37.41;97737.16;2123118;84;21018;-82
2022/03/30 09:54:57;;;;;;;21.90;15.05;;;;;;;13.01;37.90;97734.09;2123342;84;20963;-83
2022/03/30 09:57:58;;;;;;;27.82;16.62;;;;;;;13.05;39.30;97730.09;2115788;84;21046;-83
2022/03/30 10:00:58;;;;;;;23.67;16.15;;;;;;;13.26;38.54;97734.15;2122802;84;20966;-82
2022/03/30 10:04:03;;;;;;;24.67;14.75;;;;;;;13.35;38.49;97723.52;2115554;84;20995;-83
2022/03/30 10:07:04;;;;;;;24.23;16.35;;;;;;;13.27;37.90;97725.40;2117259;84;21042;-84
2022/03/30 10:10:04;;;;;;;24.25;16.20;;;;;;;13.48;37.22;97720.67;2124581;84;21512;-83
2022/03/30 10:13:05;;;;;;;19.90;15.15;;;;;;;13.61;37.90;97722.19;2115681;84;21100;-82
2022/03/30 10:16:06;;;;;;;20.97;15.10;;;;;;;13.64;37.95;97720.38;2115935;84;21033;-79
2022/03/30 10:19:07;;;;;;;23.12;15.05;;;;;;;13.57;37.19;97722.69;2118209;84;20966;-82
2022/03/30 10:22:07;;;;;;;22.70;13.55;;;;;;;13.46;37.70;97723.33;2117662;84;20966;-81
2022/03/30 10:25:08;;;;;;;16.42;13.20;;;;;;;13.54;38.05;97716.64;2117967;84;21386;-80
2022/03/30 10:28:08;;;;;;;16.02;11.28;;;;;;;13.82;37.85;97715.68;2117134;84;20943;-83
2022/03/30 10:31:09;;;;;;;16.52;13.48;;;;;;;14.14;36.38;97714.63;2118923;84;21021;-83
2022/03/30 10:34:10;;;;;;;22.80;13.35;;;;;;;14.20;35.22;97714.51;2118816;84;21017;-82
2022/03/30 10:37:10;;;;;;;21.52;15.43;;;;;;;14.00;36.11;97708.35;2121196;84;21021;-83
2022/03/30 10:40:11;;;;;;;21.45;14.80;;;;;;;14.00;36.28;97696.99;2119468;84;21017;-83
2022/03/30 10:43:11;;;;;;;19.57;14.10;;;;;;;14.00;35.05;97700.93;2119714;84;21058;-81
2022/03/30 10:46:14;;;;;;;20.20;14.63;;;;;;;13.80;35.51;97697.80;2118821;84;21933;-82
2022/03/30 10:49:14;;;;;;;19.00;14.78;;;;;;;13.68;36.03;97705.45;2121059;84;21026;-83
2022/03/30 10:52:15;;;;;;;19.77;13.15;;;;;;;13.72;36.51;97697.94;2119848;84;21069;-80
2022/03/30 10:55:16;;;;;;;19.60;15.13;;;;;;;13.98;36.25;97690.91;2120298;84;21404;-82
2022/03/30 10:58:17;;;;;;;22.52;16.48;;;;;;;14.03;36.45;97691.69;2120095;84;21049;-82
2022/03/30 11:01:27;;;;;;;19.02;13.30;;;;;;;14.01;36.62;97693.47;2119637;84;21046;-80
2022/03/30 11:04:26;;;;;;;21.20;15.60;;;;;;;14.09;35.45;97690.69;2119043;84;21034;-83
2022/03/30 11:07:27;;;;;;;19.20;13.53;;;;;;;14.14;36.11;97688.84;2117906;84;20955;-82
2022/03/30 11:10:27;;;;;;;20.65;12.65;;;;;;;14.25;34.91;97677.67;2117007;84;21083;-81
2022/03/30 11:13:28;;;;;;;19.27;13.65;;;;;;;14.41;34.69;97687.39;2116303;84;21034;-82
2022/03/30 11:16:28;;;;;;;23.27;15.35;;;;;;;14.37;34.31;97679.16;2118751;84;20955;-81
2022/03/30 11:19:29;;;;;;;24.15;14.18;;;;;;;14.21;34.60;97677.31;2114414;83;21015;-82
2022/03/30 11:22:33;;;;;;;21.37;15.45;;;;;;;14.30;35.11;97670.11;2119140;83;21077;-82
2022/03/30 11:25:33;;;;;;;16.82;13.30;;;;;;;14.23;34.57;97672.91;2112261;84;20995;-80
2022/03/30 11:28:33;;;;;;;20.32;14.70;;;;;;;14.16;35.24;97669.98;2115516;83;20986;-82
2022/03/30 11:31:34;;;;;;;21.75;14.07;;;;;;;14.21;35.29;97664.20;2111598;84;20971;-80
2022/03/30 11:34:36;;;;;;;20.15;14.80;;;;;;;14.50;35.29;97657.89;2117092;84;21046;-81
2022/03/30 11:37:37;;;;;;;19.00;14.47;;;;;;;14.81;34.85;97649.33;2118885;84;21003;-83
2022/03/30 11:40:37;;;;;;;22.90;16.57;;;;;;;14.89;34.16;97661.83;2118543;84;20990;-83
2022/03/30 11:46:56;;;;;;;29.10;15.95;;;;;;;14.57;34.25;97652.05;2109438;84;21030;-82
2022/03/30 11:49:57;;;;;;;21.95;15.48;;;;;;;14.56;33.79;97649.88;2117255;84;20978;-81
2022/03/30 11:52:59;;;;;;;21.82;16.32;;;;;;;14.56;33.79;97649.88;2115577;84;21065;-82
2022/03/30 11:56:00;;;;;;;28.95;17.27;;;;;;;14.38;34.42;97651.56;2115414;84;20994;-81
2022/03/30 11:59:01;;;;;;;20.60;14.70;;;;;;;14.45;34.49;97646.63;2107858;84;20979;-81
2022/03/30 12:02:01;;;;;;;41.05;16.52;;;;;;;14.45;34.49;97646.63;2115006;83;21148;-81
2022/03/30 12:05:02;;;;;;;47.10;16.95;;;;;;;14.45;34.36;97637.44;2122184;83;21501;-79
2022/03/30 12:08:03;;;;;;;24.50;16.25;;;;;;;14.48;34.87;97638.68;2121393;84;20989;-76
2022/03/30 12:11:04;;;;;;;31.12;15.88;;;;;;;14.59;34.67;97639.75;2113710;84;21326;-80
2022/03/30 12:14:11;;;;;;;21.95;15.15;;;;;;;14.70;34.57;97632.92;2107055;84;21473;-79
2022/03/30 12:17:07;;;;;;;30.02;15.83;;;;;;;14.65;34.24;97636.52;2113845;84;21042;-80
2022/03/30 12:20:08;;;;;;;28.12;16.60;;;;;;;14.58;34.62;97632.31;2107757;84;21001;-83
2022/03/30 12:23:10;;;;;;;20.45;14.60;;;;;;;14.64;34.51;97630.00;2117437;83;21005;-82
2022/03/30 12:26:10;;;;;;;27.73;15.30;;;;;;;14.58;34.29;97628.38;2115998;84;21030;-84
2022/03/30 12:29:12;;;;;;;27.10;16.07;;;;;;;14.44;33.38;97633.53;2108300;84;20971;-85
2022/03/30 12:32:15;;;;;;;18.57;13.55;;;;;;;14.44;33.38;97633.53;2107590;83;21109;-82
2022/03/30 12:35:16;;;;;;;18.95;14.85;;;;;;;14.29;33.88;97629.46;2107035;84;21117;-85
2022/03/30 12:38:17;;;;;;;27.77;16.82;;;;;;;14.13;33.92;97630.24;2117562;84;21486;-85
2022/03/30 12:41:17;;;;;;;21.48;15.15;;;;;;;13.95;34.33;97622.31;2096755;84;21409;-82
2022/03/30 12:44:18;;;;;;;25.00;16.45;;;;;;;13.90;34.90;97621.55;2089504;84;21086;-80
2022/03/30 12:47:20;;;;;;;32.10;16.82;;;;;;;13.94;35.10;97613.17;2107729;84;20990;-84
2022/03/30 12:50:23;;;;;;;22.25;15.85;;;;;;;14.14;34.84;97610.98;2097660;84;21015;-80
2022/03/30 12:53:25;;;;;;;22.07;15.60;;;;;;;14.20;34.85;97607.36;2107204;84;21058;-80
2022/03/30 12:56:25;;;;;;;48.15;19.70;;;;;;;14.21;35.00;97609.08;2096308;84;21057;-80
2022/03/30 12:59:26;;;;;;;30.00;16.17;;;;;;;14.19;34.94;97601.69;2109467;84;20970;-81
2022/03/30 13:02:26;;;;;;;24.20;15.95;;;;;;;14.20;35.12;97599.48;2117475;84;21013;-80
2022/03/30 13:05:27;;;;;;;30.17;15.72;;;;;;;14.24;35.14;97602.00;2107400;84;21030;-83
2022/03/30 13:08:27;;;;;;;24.45;14.85;;;;;;;14.30;35.03;97598.38;2115582;84;20994;-82
2022/03/30 13:11:28;;;;;;;44.67;17.50;;;;;;;14.31;34.87;97599.66;2091685;84;21043;-81
2022/03/30 13:14:28;;;;;;;27.93;14.60;;;;;;;14.34;35.21;97593.02;2098463;83;21046;-82
2022/03/30 13:17:29;;;;;;;63.40;18.30;;;;;;;14.36;34.67;97591.67;2098436;84;20958;-82
2022/03/30 13:20:29;;;;;;;20.55;15.05;;;;;;;14.25;35.06;97587.13;2108111;83;21013;-81
2022/03/30 13:23:30;;;;;;;21.97;15.98;;;;;;;14.28;35.32;97585.28;2115207;84;21018;-82
2022/03/30 13:26:31;;;;;;;42.10;17.23;;;;;;;14.29;35.17;97583.08;2114549;84;20986;-82
2022/03/30 13:29:33;;;;;;;30.35;15.30;;;;;;;14.32;35.38;97574.27;2115055;84;21041;-81
2022/03/30 13:32:33;;;;;;;26.85;15.35;;;;;;;14.42;35.09;97573.60;2114904;84;21120;-80
2022/03/30 13:35:34;;;;;;;38.13;17.05;;;;;;;14.46;35.12;97571.35;2109127;83;20971;-82
2022/03/30 13:38:35;;;;;;;24.72;16.10;;;;;;;14.58;34.97;97571.05;2117792;84;21007;-81
2022/03/30 13:41:35;;;;;;;32.93;16.00;;;;;;;14.55;34.99;97565.88;2116670;84;21014;-78
2022/03/30 13:44:36;;;;;;;17.67;13.83;;;;;;;14.61;34.96;97559.16;2110652;83;21045;-81
2022/03/30 13:47:36;;;;;;;23.07;15.30;;;;;;;14.54;34.67;97560.21;2113202;83;21531;-81
2022/03/30 13:50:37;;;;;;;21.25;15.20;;;;;;;14.27;34.48;97565.64;2118634;84;21013;-79
2022/03/30 13:53:37;;;;;;;27.10;17.02;;;;;;;14.03;34.65;97556.56;2119354;84;21006;-82
2022/03/30 13:56:38;;;;;;;22.55;14.85;;;;;;;13.93;35.07;97552.41;2117037;84;20951;-81
2022/03/30 13:59:39;;;;;;;21.97;15.93;;;;;;;13.99;35.14;97555.77;2113639;83;20919;-82
2022/03/30 14:02:40;;;;;;;26.07;16.87;;;;;;;14.07;35.23;97554.28;2111548;84;21900;-82
2022/03/30 14:05:43;;;;;;;21.80;16.25;;;;;;;14.07;35.26;97549.03;2111471;84;20995;-83
2022/03/30 14:08:44;;;;;;;25.10;15.37;;;;;;;14.13;35.17;97550.66;2119799;84;21062;-80
2022/03/30 14:11:44;;;;;;;23.90;15.15;;;;;;;14.13;35.22;97550.66;2111427;84;20995;-81
2022/03/30 14:14:44;;;;;;;21.37;15.10;;;;;;;14.13;34.94;97541.02;2118215;84;21069;-80